Noatak Airport
PAWN : now visible

Aeroporto :











RITROVATECI SU...

 
LOGIN :

Iscrizione | Disclaimer

   EN    FR    IT 

 









Sommario :    VFR   VFR Marginale   IFR   IFR Intensivo   IFR Molto Intensivo
Visibilità : 
Base nubi : 
>= 8 km
>= 3000ft
5 / 8 km
1000 / 3000 ft
1500m / 5 km
500 / 1000 ft
800 / 1500m
200 / 500 ft
< 800m
< 200 ft
Simboli :   Temporali  Nebbia  Neve Forte  Precipitazioni Forti  Vento > 20 kt






- Altitudine del aeroporto : 88 ft
- Codice IATA : WTK


PAWN - Noatak

ULTIMO METAR :
  • 261256Z AUTO 34007KT 10SM FEW060 M04/M07 A2970 RMK AO2 SLP070 T10441067 FZRANO

METARs OBSOLETI :
  • 261156Z AUTO 33005KT 10SM BKN060 M03/M05 A2972 RMK AO2 SLP075 T10281050 11017 21028 58018 FZRANO
  • 261056Z AUTO 00000KT 10SM OVC060 M02/M05 A2974 RMK AO2 SLP083 T10221050 FZRANO

TAF N/A
FIR PAZA / America del Nord



MetMap, La meteo Aeronautica in un colpo d'occhio ! - Copyright ORBIFLY Dicembre 2007 - Disclaimer

ORBIFLY MET'MAP TEAM :

Programmazione e sviluppo : Alexandra Zaïnal
Concezione : Baudouin d'Aumeries
Aiuto per la programmazione : Marc-Olivier Méhu
Supporto tecnico e logistico : Manuel Goepfert
Aiuto per la traduzione : Arnaldo La Scala

Contatto : metmap@orbifly.com




FONTI E CREDITI :

   NOAA       Earth
Advisory